Time;durP1;ratioP1;P1;durP2;ratioP2;P2;SDS_P1;SDS_P2;PMS_P1;PMS_P2;Temp;Humidity;BMP_temperature;BMP_pressure;BME280_temperature;BME280_humidity;BME280_pressure;Samples;Min_cycle;Max_cycle;Signal;HPM_P1;HPM_P2
2021/03/18 00:09:39;;;;;;;3.95;1.00;;;21.60;43.90;;;;;;20671244;28;20037;-23
2021/03/18 00:19:40;;;;;;;2.92;1.10;;;21.50;43.70;;;;;;20672610;28;20104;-24
2021/03/18 00:29:41;;;;;;;2.73;1.43;;;21.40;43.60;;;;;;20670713;28;20062;-22
2021/03/18 00:39:41;;;;;;;4.35;1.70;;;21.20;43.30;;;;;;20669735;28;20465;-23
2021/03/18 00:49:42;;;;;;;4.40;1.48;;;21.20;43.40;;;;;;20690842;28;20030;-24
2021/03/18 00:59:42;;;;;;;2.05;1.23;;;21.10;43.30;;;;;;20688292;28;20037;-24
2021/03/18 01:09:43;;;;;;;2.35;1.20;;;21.00;43.30;;;;;;20668363;28;20076;-24
2021/03/18 01:19:43;;;;;;;2.35;1.30;;;21.10;43.20;;;;;;20684931;28;20068;-23
2021/03/18 01:29:44;;;;;;;4.40;1.27;;;21.00;43.10;;;;;;20694630;28;20116;-20
2021/03/18 01:39:44;;;;;;;4.93;1.65;;;21.20;42.80;;;;;;20695005;28;20096;-22
2021/03/18 01:49:45;;;;;;;2.33;1.10;;;21.20;42.50;;;;;;20718550;23;20126;-21
2021/03/18 01:59:46;;;;;;;1.95;0.95;;;21.20;42.40;;;;;;20686457;28;20245;-19
2021/03/18 02:09:46;;;;;;;2.65;0.93;;;21.30;42.10;;;;;;20663273;28;20031;-22
2021/03/18 02:20:29;;;;;;;1.88;0.82;;;21.20;42.00;;;;;;20689456;28;20034;-21
2021/03/18 02:30:35;;;;;;;2.72;1.27;;;21.30;41.90;;;;;;20672235;28;20034;-20
2021/03/18 02:40:41;;;;;;;2.47;1.10;;;21.20;41.80;;;;;;20675523;28;20368;-21
2021/03/18 02:50:42;;;;;;;2.95;1.13;;;21.20;41.70;;;;;;20669626;28;20050;-22
2021/03/18 03:00:43;;;;;;;2.17;1.08;;;21.20;41.50;;;;;;20679662;28;20482;-20
2021/03/18 03:10:47;;;;;;;3.15;1.42;;;21.20;41.30;;;;;;20685422;28;20021;-18
2021/03/18 03:20:51;;;;;;;1.90;1.08;;;21.20;41.30;;;;;;20676844;28;20030;-20
2021/03/18 03:30:54;;;;;;;3.15;1.10;;;21.20;41.30;;;;;;20687043;28;20042;-19
2021/03/18 03:40:55;;;;;;;2.95;1.00;;;21.20;41.60;;;;;;20678822;28;20035;-21
2021/03/18 03:50:56;;;;;;;1.48;0.80;;;21.20;41.60;;;;;;20685819;28;20034;-20
2021/03/18 04:01:02;;;;;;;1.95;0.82;;;21.20;41.70;;;;;;20671753;28;20109;-20
2021/03/18 04:11:03;;;;;;;2.78;1.05;;;21.30;41.70;;;;;;20665099;28;20049;-21
2021/03/18 04:21:06;;;;;;;2.83;1.02;;;21.20;41.70;;;;;;20680522;28;20058;-19
2021/03/18 04:31:08;;;;;;;1.65;0.80;;;21.20;41.60;;;;;;20669810;28;20093;-21
2021/03/18 04:41:08;;;;;;;1.95;1.08;;;21.20;41.60;;;;;;20669328;28;20491;-21
2021/03/18 04:51:10;;;;;;;1.80;1.00;;;21.30;41.30;;;;;;20679918;28;20406;-21
2021/03/18 05:01:12;;;;;;;2.58;1.48;;;21.20;41.20;;;;;;20667685;28;20101;-22
2021/03/18 05:11:13;;;;;;;2.50;1.65;;;21.30;41.00;;;;;;20666743;28;20030;-19
2021/03/18 05:21:14;;;;;;;4.10;1.55;;;21.30;41.00;;;;;;20665283;28;20639;-21
2021/03/18 05:31:15;;;;;;;2.67;1.70;;;21.30;40.80;;;;;;20680483;28;20404;-21
2021/03/18 05:41:17;;;;;;;3.20;2.00;;;21.30;40.70;;;;;;20669925;28;20430;-21
2021/03/18 05:51:19;;;;;;;2.30;1.40;;;21.30;40.60;;;;;;20663747;28;20035;-20
2021/03/18 06:01:19;;;;;;;2.17;1.35;;;21.30;40.50;;;;;;20675629;28;20057;-19
2021/03/18 06:11:20;;;;;;;2.40;1.70;;;21.30;40.30;;;;;;20661482;28;20027;-19
2021/03/18 06:21:51;;;;;;;2.13;1.23;;;21.30;40.20;;;;;;20677055;28;20057;-21
2021/03/18 06:31:52;;;;;;;1.70;1.10;;;21.40;40.20;;;;;;20685942;28;20030;-21
2021/03/18 06:41:59;;;;;;;2.53;1.23;;;21.30;40.10;;;;;;20680862;28;20073;-20
2021/03/18 06:52:05;;;;;;;2.03;1.50;;;21.30;40.00;;;;;;20684867;28;20038;-20
2021/03/18 07:02:13;;;;;;;2.22;1.33;;;21.30;39.90;;;;;;20659072;28;20049;-21
2021/03/18 07:12:17;;;;;;;4.30;1.37;;;21.30;40.00;;;;;;20618554;28;20112;-21
2021/03/18 07:22:20;;;;;;;4.93;0.98;;;21.30;40.00;;;;;;20674557;28;20080;-20
2021/03/18 07:32:20;;;;;;;1.83;1.08;;;21.30;40.00;;;;;;20674144;28;20126;-19
2021/03/18 07:42:22;;;;;;;7.75;1.15;;;21.30;40.20;;;;;;20689434;23;20068;-24
2021/03/18 07:52:25;;;;;;;11.77;2.25;;;21.40;40.20;;;;;;20702971;28;20454;-23
2021/03/18 08:02:25;;;;;;;8.15;2.03;;;21.60;40.30;;;;;;20646329;28;20081;-26
2021/03/18 08:12:48;;;;;;;7.90;2.43;;;22.00;39.70;;;;;;20656831;28;20054;-19
2021/03/18 08:22:48;;;;;;;15.00;3.35;;;22.30;38.80;;;;;;20638598;28;20026;-19
2021/03/18 08:32:49;;;;;;;15.15;4.32;;;22.60;37.90;;;;;;20637885;28;20040;-18
2021/03/18 08:42:51;;;;;;;21.47;6.43;;;22.80;37.80;;;;;;20650121;28;20038;-21
2021/03/18 08:52:53;;;;;;;41.20;8.45;;;23.10;37.00;;;;;;20662496;28;20889;-22
2021/03/18 09:02:53;;;;;;;21.10;4.75;;;23.40;37.30;;;;;;20635747;28;20364;-24
2021/03/18 09:12:59;;;;;;;14.57;4.47;;;23.40;37.20;;;;;;20664322;28;20034;-24
2021/03/18 09:23:07;;;;;;;15.57;3.33;;;23.30;37.20;;;;;;20662648;28;20037;-23
2021/03/18 09:33:27;;;;;;;15.53;3.63;;;23.30;37.60;;;;;;20660392;28;20153;-24
2021/03/18 09:43:29;;;;;;;8.65;3.63;;;23.10;37.60;;;;;;20658964;28;20538;-24
2021/03/18 09:53:29;;;;;;;13.95;2.85;;;23.00;37.70;;;;;;20659618;28;20027;-25
2021/03/18 10:03:30;;;;;;;12.35;3.50;;;23.00;37.70;;;;;;20657475;28;20026;-23
2021/03/18 10:13:31;;;;;;;7.78;3.00;;;23.10;37.50;;;;;;20657272;28;20109;-20
2021/03/18 10:23:32;;;;;;;12.40;4.07;;;23.00;37.90;;;;;;20663280;28;20113;-21
2021/03/18 10:33:35;;;;;;;12.07;3.05;;;23.10;38.20;;;;;;20657236;28;20149;-21
2021/03/18 10:43:44;;;;;;;11.77;3.72;;;23.00;38.10;;;;;;20658792;28;20034;-22
2021/03/18 10:53:45;;;;;;;9.10;3.25;;;23.10;38.50;;;;;;20679292;28;20105;-20
2021/03/18 11:03:48;;;;;;;7.72;3.22;;;22.70;38.20;;;;;;20680171;28;20479;-21
2021/03/18 11:13:49;;;;;;;9.90;2.40;;;22.50;38.50;;;;;;20679732;28;20030;-23
2021/03/18 11:24:02;;;;;;;8.70;2.53;;;22.30;39.30;;;;;;20684144;28;20050;-21
2021/03/18 11:34:18;;;;;;;5.57;2.08;;;22.10;39.00;;;;;;20679907;28;20030;-23
2021/03/18 11:44:20;;;;;;;6.90;2.33;;;21.90;39.20;;;;;;20657165;28;20077;-21
2021/03/18 11:54:21;;;;;;;6.45;1.90;;;21.50;39.50;;;;;;20656468;28;20018;-22
2021/03/18 12:04:21;;;;;;;3.10;1.60;;;21.50;39.90;;;;;;20654719;28;20669;-19
2021/03/18 12:14:22;;;;;;;4.57;1.88;;;21.30;40.10;;;;;;20654702;28;20489;-19
2021/03/18 12:24:22;;;;;;;5.00;2.15;;;21.20;40.40;;;;;;20655040;28;20054;-19
2021/03/18 12:34:23;;;;;;;3.72;1.38;;;21.00;40.60;;;;;;20662858;28;20096;-22
2021/03/18 12:44:24;;;;;;;4.43;1.92;;;20.90;40.70;;;;;;20668333;28;20506;-20
2021/03/18 12:54:25;;;;;;;5.80;2.15;;;20.90;40.90;;;;;;20667485;28;20394;-20
2021/03/18 13:04:25;;;;;;;4.70;1.63;;;20.70;41.00;;;;;;20666386;28;20088;-19
2021/03/18 13:14:26;;;;;;;3.57;1.77;;;20.60;41.10;;;;;;20667538;28;20022;-19
2021/03/18 13:24:28;;;;;;;3.50;1.70;;;20.60;41.20;;;;;;20669768;28;20449;-21
2021/03/18 13:34:28;;;;;;;5.38;1.98;;;20.40;41.20;;;;;;20666340;28;20426;-26
2021/03/18 13:44:29;;;;;;;3.13;1.90;;;20.50;41.30;;;;;;20664010;28;20042;-20
2021/03/18 13:54:29;;;;;;;3.20;1.58;;;20.40;41.40;;;;;;20660022;28;20076;-20
2021/03/18 14:04:30;;;;;;;2.47;1.38;;;20.30;41.40;;;;;;20659285;28;20034;-24
2021/03/18 14:14:30;;;;;;;3.15;1.52;;;20.30;41.60;;;;;;20657772;28;20034;-25
2021/03/18 14:24:32;;;;;;;3.17;1.58;;;20.30;41.60;;;;;;20656928;28;20030;-25
2021/03/18 14:34:32;;;;;;;2.35;1.38;;;20.20;41.60;;;;;;20656712;28;20523;-25
2021/03/18 14:44:33;;;;;;;2.63;1.50;;;20.20;41.60;;;;;;20656181;28;20085;-25
2021/03/18 14:54:35;;;;;;;2.83;1.35;;;20.10;41.60;;;;;;20656042;28;20093;-24
2021/03/18 15:04:35;;;;;;;2.28;1.40;;;20.10;41.70;;;;;;20655372;28;20023;-24
2021/03/18 15:14:36;;;;;;;2.85;1.70;;;20.00;41.70;;;;;;20654925;28;20418;-25
2021/03/18 15:24:37;;;;;;;2.45;1.60;;;20.00;41.70;;;;;;20659756;28;20030;-25
2021/03/18 15:34:37;;;;;;;2.50;1.40;;;20.00;41.80;;;;;;20659330;28;20038;-25
2021/03/18 15:44:38;;;;;;;2.35;1.60;;;19.90;41.80;;;;;;20664804;28;20070;-26
2021/03/18 15:54:39;;;;;;;2.78;1.77;;;19.90;41.80;;;;;;20659494;28;20037;-26
2021/03/18 16:04:39;;;;;;;4.60;2.72;;;19.80;41.80;;;;;;20650985;28;20050;-26
2021/03/18 16:14:40;;;;;;;5.10;3.57;;;19.90;40.20;;;;;;20599971;28;20030;-24
2021/03/18 16:24:40;;;;;;;9.00;3.17;;;20.20;38.10;;;;;;20613078;28;20126;-20
2021/03/18 16:34:42;;;;;;;9.02;3.47;;;20.70;38.60;;;;;;20661730;28;20042;-22
2021/03/18 16:44:43;;;;;;;13.70;3.50;;;21.30;38.70;;;;;;20609950;28;20034;-24
2021/03/18 16:54:44;;;;;;;7.82;2.92;;;21.90;38.30;;;;;;20587345;28;20030;-24
2021/03/18 17:04:45;;;;;;;10.93;3.08;;;22.50;37.80;;;;;;20614445;28;20081;-22
2021/03/18 17:14:46;;;;;;;16.70;2.50;;;23.00;37.60;;;;;;20619201;28;20368;-18
2021/03/18 17:24:46;;;;;;;17.65;2.70;;;23.30;37.30;;;;;;20624728;28;20057;-22
2021/03/18 17:34:47;;;;;;;10.30;2.10;;;23.70;36.90;;;;;;20653002;28;20027;-24
2021/03/18 17:44:48;;;;;;;10.48;2.40;;;23.90;36.40;;;;;;20663971;28;20038;-25
2021/03/18 17:54:49;;;;;;;17.02;2.85;;;23.70;36.20;;;;;;20652810;28;20481;-22
2021/03/18 18:04:50;;;;;;;9.83;1.70;;;23.70;36.70;;;;;;20623537;28;20042;-22
2021/03/18 18:14:51;;;;;;;9.75;1.88;;;23.50;37.00;;;;;;20580894;28;21068;-22
2021/03/18 18:24:51;;;;;;;5.95;1.83;;;23.60;36.70;;;;;;20624373;28;20039;-23
2021/03/18 18:34:54;;;;;;;8.17;3.57;;;23.60;36.90;;;;;;20660646;28;20026;-23
2021/03/18 18:44:55;;;;;;;14.82;4.45;;;23.60;37.20;;;;;;20660416;28;20469;-24
2021/03/18 18:54:56;;;;;;;13.10;4.05;;;23.70;37.10;;;;;;20659152;28;20053;-24
2021/03/18 19:04:56;;;;;;;8.00;3.25;;;23.50;37.30;;;;;;20659385;28;20038;-23
2021/03/18 19:14:57;;;;;;;9.80;2.97;;;23.50;37.40;;;;;;20656168;28;20030;-24
2021/03/18 19:24:57;;;;;;;6.95;3.53;;;23.40;37.60;;;;;;20655460;28;20038;-21
2021/03/18 19:34:58;;;;;;;8.88;2.72;;;23.50;37.50;;;;;;20659872;28;20053;-23
2021/03/18 19:44:59;;;;;;;9.82;3.47;;;23.30;37.60;;;;;;20735783;23;20041;-23
2021/03/18 19:55:00;;;;;;;14.40;3.90;;;23.50;38.30;;;;;;20773420;28;20038;-24
2021/03/18 20:05:00;;;;;;;15.00;3.55;;;23.40;39.20;;;;;;20756830;28;20391;-23
2021/03/18 20:15:01;;;;;;;8.57;3.90;;;23.30;39.80;;;;;;20748202;28;20096;-24
2021/03/18 20:25:04;;;;;;;9.85;2.95;;;23.50;39.70;;;;;;20749326;28;20034;-23
2021/03/18 20:35:07;;;;;;;8.82;3.80;;;23.30;40.20;;;;;;20762652;28;20076;-22
2021/03/18 20:45:09;;;;;;;5.97;2.97;;;23.40;40.30;;;;;;20756748;28;20042;-24
2021/03/18 20:55:11;;;;;;;7.80;2.80;;;23.30;40.70;;;;;;20747875;28;20025;-21
2021/03/18 21:05:12;;;;;;;7.07;2.22;;;23.40;40.60;;;;;;20744256;28;20030;-21
2021/03/18 21:15:14;;;;;;;5.85;3.15;;;23.30;40.90;;;;;;20743540;28;20030;-23
2021/03/18 21:25:16;;;;;;;4.25;2.30;;;23.40;40.90;;;;;;20744427;28;20063;-22
2021/03/18 21:35:18;;;;;;;3.90;1.83;;;23.40;41.10;;;;;;20745596;28;20057;-21
2021/03/18 21:45:22;;;;;;;4.82;2.00;;;23.40;41.50;;;;;;20740966;28;20379;-22
2021/03/18 21:55:24;;;;;;;4.25;1.88;;;23.50;41.60;;;;;;20751015;28;20026;-25
2021/03/18 22:05:26;;;;;;;4.97;1.63;;;23.40;41.80;;;;;;20744171;28;20022;-21
2021/03/18 22:15:27;;;;;;;3.72;1.70;;;23.20;42.10;;;;;;20745355;28;20063;-23
2021/03/18 22:25:28;;;;;;;3.28;1.60;;;23.40;42.20;;;;;;20741774;28;20054;-20
2021/03/18 22:35:28;;;;;;;4.60;1.70;;;23.20;42.40;;;;;;20737745;28;20053;-20
2021/03/18 22:45:29;;;;;;;4.43;1.92;;;23.00;42.90;;;;;;20738938;28;20116;-25
2021/03/18 22:55:30;;;;;;;6.43;3.40;;;22.70;43.00;;;;;;20738662;28;20026;-20
2021/03/18 23:05:30;;;;;;;10.48;2.83;;;22.60;44.40;;;;;;20718806;28;20037;-22
2021/03/18 23:15:31;;;;;;;8.47;2.53;;;22.30;45.20;;;;;;20701452;28;20118;-23
2021/03/18 23:25:33;;;;;;;15.15;3.72;;;22.10;46.30;;;;;;20663595;28;20499;-19
2021/03/18 23:35:33;;;;;;;8.75;3.00;;;21.90;46.80;;;;;;20659526;28;20030;-24
2021/03/18 23:45:34;;;;;;;8.60;2.75;;;21.60;47.10;;;;;;20686063;28;20506;-21
2021/03/18 23:55:35;;;;;;;7.65;3.50;;;21.40;47.70;;;;;;20736335;28;20030;-19
